sensor_id;sensor_type;location;lat;lon;timestamp;pressure;altitude;pressure_sealevel;temperature;humidity
33153;BME280;19509;43.862;26.176;2023-07-13T00:02:07;100613.72;;;24.72;67.30
33153;BME280;19509;43.862;26.176;2023-07-13T00:04:32;100606.91;;;24.70;67.37
33153;BME280;19509;43.862;26.176;2023-07-13T00:06:58;100611.38;;;24.66;68.20
33153;BME280;19509;43.862;26.176;2023-07-13T00:09:24;100618.00;;;24.65;67.67
33153;BME280;19509;43.862;26.176;2023-07-13T00:11:54;100625.66;;;24.68;67.24
33153;BME280;19509;43.862;26.176;2023-07-13T00:14:20;100618.31;;;24.63;67.25
33153;BME280;19509;43.862;26.176;2023-07-13T00:16:46;100612.81;;;24.63;67.09
33153;BME280;19509;43.862;26.176;2023-07-13T00:19:13;100624.53;;;24.69;66.79
33153;BME280;19509;43.862;26.176;2023-07-13T00:21:41;100614.75;;;24.63;67.08
33153;BME280;19509;43.862;26.176;2023-07-13T00:24:08;100613.28;;;24.51;67.61
33153;BME280;19509;43.862;26.176;2023-07-13T00:26:38;100600.34;;;24.52;67.52
33153;BME280;19509;43.862;26.176;2023-07-13T00:29:04;100590.78;;;24.49;67.69
33153;BME280;19509;43.862;26.176;2023-07-13T00:31:31;100602.69;;;24.45;68.31
33153;BME280;19509;43.862;26.176;2023-07-13T00:33:56;100597.53;;;24.38;68.68
33153;BME280;19509;43.862;26.176;2023-07-13T00:36:22;100589.47;;;24.28;68.79
33153;BME280;19509;43.862;26.176;2023-07-13T00:38:47;100588.38;;;24.29;68.52
33153;BME280;19509;43.862;26.176;2023-07-13T00:41:13;100584.91;;;24.37;67.90
33153;BME280;19509;43.862;26.176;2023-07-13T00:43:39;100587.47;;;24.34;68.22
33153;BME280;19509;43.862;26.176;2023-07-13T00:46:21;100587.31;;;24.25;68.66
33153;BME280;19509;43.862;26.176;2023-07-13T00:48:48;100589.19;;;24.29;68.62
33153;BME280;19509;43.862;26.176;2023-07-13T00:51:19;100581.94;;;24.20;69.08
33153;BME280;19509;43.862;26.176;2023-07-13T00:53:46;100585.97;;;24.08;69.84
33153;BME280;19509;43.862;26.176;2023-07-13T00:56:11;100576.19;;;24.02;70.09
33153;BME280;19509;43.862;26.176;2023-07-13T00:58:38;100584.22;;;23.99;70.16
33153;BME280;19509;43.862;26.176;2023-07-13T01:01:03;100581.16;;;24.00;70.08
33153;BME280;19509;43.862;26.176;2023-07-13T01:03:29;100576.13;;;23.89;70.39
33153;BME280;19509;43.862;26.176;2023-07-13T01:05:55;100576.41;;;23.87;70.49
33153;BME280;19509;43.862;26.176;2023-07-13T01:08:21;100581.84;;;23.92;70.55
33153;BME280;19509;43.862;26.176;2023-07-13T01:10:55;100580.72;;;23.93;70.38
33153;BME280;19509;43.862;26.176;2023-07-13T01:13:21;100584.22;;;23.80;70.83
33153;BME280;19509;43.862;26.176;2023-07-13T01:15:48;100589.81;;;23.75;71.21
33153;BME280;19509;43.862;26.176;2023-07-13T01:18:22;100585.09;;;23.56;71.92
33153;BME280;19509;43.862;26.176;2023-07-13T01:21:01;100603.66;;;23.46;72.86
33153;BME280;19509;43.862;26.176;2023-07-13T01:23:28;100603.81;;;23.35;73.10
33153;BME280;19509;43.862;26.176;2023-07-13T01:25:55;100611.31;;;23.06;74.38
33153;BME280;19509;43.862;26.176;2023-07-13T01:28:22;100608.19;;;22.94;75.14
33153;BME280;19509;43.862;26.176;2023-07-13T01:30:48;100593.66;;;22.93;75.27
33153;BME280;19509;43.862;26.176;2023-07-13T01:33:15;100599.38;;;22.91;76.14
33153;BME280;19509;43.862;26.176;2023-07-13T01:35:42;100599.94;;;22.94;76.00
33153;BME280;19509;43.862;26.176;2023-07-13T01:38:09;100606.66;;;23.06;75.55
33153;BME280;19509;43.862;26.176;2023-07-13T01:40:36;100605.47;;;23.12;75.11
33153;BME280;19509;43.862;26.176;2023-07-13T01:43:01;100595.56;;;23.17;75.66
33153;BME280;19509;43.862;26.176;2023-07-13T01:45:28;100598.63;;;22.86;76.07
33153;BME280;19509;43.862;26.176;2023-07-13T01:47:53;100599.25;;;22.54;77.56
33153;BME280;19509;43.862;26.176;2023-07-13T01:50:19;100606.81;;;22.38;78.32
33153;BME280;19509;43.862;26.176;2023-07-13T01:52:44;100614.28;;;22.32;78.57
33153;BME280;19509;43.862;26.176;2023-07-13T01:55:09;100601.84;;;22.40;78.65
33153;BME280;19509;43.862;26.176;2023-07-13T01:57:35;100607.53;;;22.49;78.60
33153;BME280;19509;43.862;26.176;2023-07-13T02:00:05;100600.75;;;22.41;78.93
33153;BME280;19509;43.862;26.176;2023-07-13T02:02:31;100602.97;;;22.39;79.25
33153;BME280;19509;43.862;26.176;2023-07-13T02:04:56;100609.50;;;22.43;78.91
33153;BME280;19509;43.862;26.176;2023-07-13T02:07:22;100608.59;;;22.53;78.59
33153;BME280;19509;43.862;26.176;2023-07-13T02:09:47;100611.28;;;22.58;78.16
33153;BME280;19509;43.862;26.176;2023-07-13T02:12:13;100604.19;;;22.52;78.28
33153;BME280;19509;43.862;26.176;2023-07-13T02:14:38;100599.00;;;22.50;78.30
33153;BME280;19509;43.862;26.176;2023-07-13T02:17:04;100597.63;;;22.53;78.25
33153;BME280;19509;43.862;26.176;2023-07-13T02:19:30;100596.84;;;22.47;78.54
33153;BME280;19509;43.862;26.176;2023-07-13T02:21:56;100605.31;;;22.51;78.33
33153;BME280;19509;43.862;26.176;2023-07-13T02:24:21;100599.34;;;22.43;78.70
33153;BME280;19509;43.862;26.176;2023-07-13T02:26:47;100599.44;;;22.33;78.95
33153;BME280;19509;43.862;26.176;2023-07-13T02:29:13;100609.41;;;22.24;79.67
33153;BME280;19509;43.862;26.176;2023-07-13T02:31:38;100606.97;;;22.17;80.06
33153;BME280;19509;43.862;26.176;2023-07-13T02:34:04;100601.16;;;22.24;79.74
33153;BME280;19509;43.862;26.176;2023-07-13T02:36:30;100602.19;;;22.33;79.02
33153;BME280;19509;43.862;26.176;2023-07-13T02:39:00;100606.38;;;22.26;79.42
33153;BME280;19509;43.862;26.176;2023-07-13T02:41:26;100603.66;;;22.20;79.78
33153;BME280;19509;43.862;26.176;2023-07-13T02:43:52;100602.03;;;22.14;80.13
33153;BME280;19509;43.862;26.176;2023-07-13T02:46:17;100598.25;;;22.15;80.13
33153;BME280;19509;43.862;26.176;2023-07-13T02:48:45;100597.69;;;22.13;80.38
33153;BME280;19509;43.862;26.176;2023-07-13T02:51:11;100596.88;;;22.08;80.40
33153;BME280;19509;43.862;26.176;2023-07-13T02:53:37;100600.22;;;22.05;80.78
33153;BME280;19509;43.862;26.176;2023-07-13T02:56:03;100606.28;;;22.02;80.95
33153;BME280;19509;43.862;26.176;2023-07-13T02:58:29;100605.25;;;21.92;81.49
33153;BME280;19509;43.862;26.176;2023-07-13T03:00:55;100602.97;;;22.05;81.11
33153;BME280;19509;43.862;26.176;2023-07-13T03:03:21;100613.06;;;22.09;81.03
33153;BME280;19509;43.862;26.176;2023-07-13T03:05:47;100602.97;;;22.05;81.37
33153;BME280;19509;43.862;26.176;2023-07-13T03:08:16;100607.34;;;22.06;81.40
33153;BME280;19509;43.862;26.176;2023-07-13T03:10:41;100602.91;;;22.10;81.07
33153;BME280;19509;43.862;26.176;2023-07-13T03:13:07;100602.09;;;22.09;81.05
33153;BME280;19509;43.862;26.176;2023-07-13T03:15:33;100594.41;;;22.16;80.77
33153;BME280;19509;43.862;26.176;2023-07-13T03:17:58;100596.56;;;22.14;81.07
33153;BME280;19509;43.862;26.176;2023-07-13T03:20:24;100597.09;;;22.22;80.59
33153;BME280;19509;43.862;26.176;2023-07-13T03:22:49;100588.28;;;22.25;80.73
33153;BME280;19509;43.862;26.176;2023-07-13T03:25:15;100593.41;;;22.36;80.03
33153;BME280;19509;43.862;26.176;2023-07-13T03:27:40;100590.34;;;22.38;80.18
33153;BME280;19509;43.862;26.176;2023-07-13T03:30:06;100591.69;;;22.40;80.15
33153;BME280;19509;43.862;26.176;2023-07-13T03:32:32;100595.00;;;22.42;80.22
33153;BME280;19509;43.862;26.176;2023-07-13T03:34:58;100600.38;;;22.53;79.57
33153;BME280;19509;43.862;26.176;2023-07-13T03:37:23;100598.03;;;22.65;79.21
33153;BME280;19509;43.862;26.176;2023-07-13T03:39:49;100594.13;;;22.71;78.70
33153;BME280;19509;43.862;26.176;2023-07-13T03:42:15;100596.28;;;22.74;78.94
33153;BME280;19509;43.862;26.176;2023-07-13T03:44:41;100597.56;;;22.82;78.44
33153;BME280;19509;43.862;26.176;2023-07-13T03:47:07;100599.97;;;22.88;78.15
33153;BME280;19509;43.862;26.176;2023-07-13T03:49:34;100584.75;;;23.01;77.58
33153;BME280;19509;43.862;26.176;2023-07-13T03:52:00;100597.00;;;23.09;77.58
33153;BME280;19509;43.862;26.176;2023-07-13T03:54:26;100596.28;;;23.22;77.24
33153;BME280;19509;43.862;26.176;2023-07-13T03:56:52;100592.28;;;23.33;76.58
33153;BME280;19509;43.862;26.176;2023-07-13T03:59:17;100589.34;;;23.49;76.43
33153;BME280;19509;43.862;26.176;2023-07-13T04:01:44;100606.78;;;23.58;76.19
33153;BME280;19509;43.862;26.176;2023-07-13T04:04:10;100596.03;;;23.61;75.85
33153;BME280;19509;43.862;26.176;2023-07-13T04:06:35;100601.75;;;23.84;74.96
33153;BME280;19509;43.862;26.176;2023-07-13T04:09:02;100607.44;;;24.06;74.18
33153;BME280;19509;43.862;26.176;2023-07-13T04:11:31;100605.91;;;24.33;73.04
33153;BME280;19509;43.862;26.176;2023-07-13T04:13:57;100593.53;;;24.49;72.36
33153;BME280;19509;43.862;26.176;2023-07-13T04:16:23;100592.28;;;24.55;71.88
33153;BME280;19509;43.862;26.176;2023-07-13T04:18:48;100600.75;;;24.45;72.36
33153;BME280;19509;43.862;26.176;2023-07-13T04:21:15;100606.25;;;24.45;72.53
33153;BME280;19509;43.862;26.176;2023-07-13T04:23:41;100605.44;;;24.45;72.79
33153;BME280;19509;43.862;26.176;2023-07-13T04:26:07;100612.69;;;24.54;72.44
33153;BME280;19509;43.862;26.176;2023-07-13T04:28:33;100599.94;;;24.59;72.25
33153;BME280;19509;43.862;26.176;2023-07-13T04:30:59;100606.72;;;24.66;72.02
33153;BME280;19509;43.862;26.176;2023-07-13T04:33:26;100609.75;;;24.78;71.68
33153;BME280;19509;43.862;26.176;2023-07-13T04:35:53;100610.47;;;24.84;71.70
33153;BME280;19509;43.862;26.176;2023-07-13T04:38:25;100611.81;;;25.00;71.29
33153;BME280;19509;43.862;26.176;2023-07-13T04:40:57;100609.06;;;25.14;71.08
33153;BME280;19509;43.862;26.176;2023-07-13T04:43:23;100613.25;;;25.25;70.60
33153;BME280;19509;43.862;26.176;2023-07-13T04:45:50;100616.59;;;25.36;70.55
33153;BME280;19509;43.862;26.176;2023-07-13T04:48:16;100619.31;;;25.50;70.14
33153;BME280;19509;43.862;26.176;2023-07-13T04:50:41;100619.28;;;25.64;69.65
33153;BME280;19509;43.862;26.176;2023-07-13T04:53:08;100631.59;;;25.80;69.33
33153;BME280;19509;43.862;26.176;2023-07-13T04:55:33;100627.81;;;25.90;69.28
33153;BME280;19509;43.862;26.176;2023-07-13T04:57:59;100632.31;;;26.08;68.65
33153;BME280;19509;43.862;26.176;2023-07-13T05:00:26;100634.88;;;26.27;68.00
33153;BME280;19509;43.862;26.176;2023-07-13T05:02:51;100630.03;;;26.55;67.18
33153;BME280;19509;43.862;26.176;2023-07-13T05:05:17;100631.13;;;26.77;66.13
33153;BME280;19509;43.862;26.176;2023-07-13T05:07:42;100625.97;;;26.93;65.96
33153;BME280;19509;43.862;26.176;2023-07-13T05:10:09;100623.44;;;27.05;65.01
33153;BME280;19509;43.862;26.176;2023-07-13T05:12:34;100619.63;;;27.32;64.65
33153;BME280;19509;43.862;26.176;2023-07-13T05:15:01;100622.44;;;27.49;64.21
33153;BME280;19509;43.862;26.176;2023-07-13T05:17:26;100621.59;;;27.57;63.65
33153;BME280;19509;43.862;26.176;2023-07-13T05:19:52;100625.22;;;27.75;63.63
33153;BME280;19509;43.862;26.176;2023-07-13T05:22:17;100633.19;;;27.94;62.77
33153;BME280;19509;43.862;26.176;2023-07-13T05:24:43;100636.09;;;28.15;61.79
33153;BME280;19509;43.862;26.176;2023-07-13T05:27:08;100633.81;;;28.35;60.68
33153;BME280;19509;43.862;26.176;2023-07-13T05:29:34;100641.66;;;28.80;59.42
33153;BME280;19509;43.862;26.176;2023-07-13T05:31:59;100639.06;;;29.21;57.36
33153;BME280;19509;43.862;26.176;2023-07-13T05:34:24;100637.31;;;29.67;56.17
33153;BME280;19509;43.862;26.176;2023-07-13T05:36:50;100641.59;;;29.86;55.76
33153;BME280;19509;43.862;26.176;2023-07-13T05:39:16;100643.34;;;29.69;55.99
33153;BME280;19509;43.862;26.176;2023-07-13T05:41:41;100632.53;;;29.47;56.19
33153;BME280;19509;43.862;26.176;2023-07-13T05:44:07;100640.31;;;29.33;55.80
33153;BME280;19509;43.862;26.176;2023-07-13T05:46:32;100637.28;;;29.46;55.59
33153;BME280;19509;43.862;26.176;2023-07-13T05:48:58;100640.72;;;29.73;55.30
33153;BME280;19509;43.862;26.176;2023-07-13T05:51:24;100640.03;;;30.09;54.21
33153;BME280;19509;43.862;26.176;2023-07-13T05:53:49;100647.53;;;30.63;52.31
33153;BME280;19509;43.862;26.176;2023-07-13T05:56:15;100650.88;;;30.56;52.33
33153;BME280;19509;43.862;26.176;2023-07-13T05:58:41;100649.06;;;30.27;53.84
33153;BME280;19509;43.862;26.176;2023-07-13T06:01:10;100647.44;;;30.26;54.66
33153;BME280;19509;43.862;26.176;2023-07-13T06:03:36;100645.69;;;30.22;53.93
33153;BME280;19509;43.862;26.176;2023-07-13T06:06:04;100638.16;;;30.22;54.16
33153;BME280;19509;43.862;26.176;2023-07-13T06:08:31;100646.53;;;30.34;53.67
33153;BME280;19509;43.862;26.176;2023-07-13T06:11:26;100641.25;;;30.42;54.44
33153;BME280;19509;43.862;26.176;2023-07-13T06:13:53;100653.06;;;30.51;54.00
33153;BME280;19509;43.862;26.176;2023-07-13T06:16:19;100647.28;;;30.56;53.06
33153;BME280;19509;43.862;26.176;2023-07-13T06:18:46;100650.19;;;30.59;52.85
33153;BME280;19509;43.862;26.176;2023-07-13T06:21:22;100643.66;;;30.76;51.93
33153;BME280;19509;43.862;26.176;2023-07-13T06:23:49;100651.06;;;30.84;51.87
33153;BME280;19509;43.862;26.176;2023-07-13T06:26:15;100652.56;;;30.94;51.50
33153;BME280;19509;43.862;26.176;2023-07-13T06:28:40;100645.53;;;31.09;52.11
33153;BME280;19509;43.862;26.176;2023-07-13T06:31:07;100661.03;;;31.10;51.07
33153;BME280;19509;43.862;26.176;2023-07-13T06:33:34;100658.72;;;31.00;51.56
33153;BME280;19509;43.862;26.176;2023-07-13T06:36:04;100658.25;;;31.22;52.09
33153;BME280;19509;43.862;26.176;2023-07-13T06:38:30;100665.56;;;31.39;51.23
33153;BME280;19509;43.862;26.176;2023-07-13T06:40:55;100667.88;;;31.49;49.47
33153;BME280;19509;43.862;26.176;2023-07-13T06:43:21;100673.19;;;31.54;49.99
33153;BME280;19509;43.862;26.176;2023-07-13T06:45:48;100664.25;;;31.73;49.54
33153;BME280;19509;43.862;26.176;2023-07-13T06:48:15;100663.88;;;31.87;50.14
33153;BME280;19509;43.862;26.176;2023-07-13T06:50:42;100665.34;;;31.85;49.88
33153;BME280;19509;43.862;26.176;2023-07-13T06:53:08;100656.06;;;31.93;48.53
33153;BME280;19509;43.862;26.176;2023-07-13T06:55:34;100660.72;;;31.89;48.79
33153;BME280;19509;43.862;26.176;2023-07-13T06:57:59;100666.09;;;32.10;47.70
33153;BME280;19509;43.862;26.176;2023-07-13T07:00:25;100665.50;;;32.16;47.09
33153;BME280;19509;43.862;26.176;2023-07-13T07:02:50;100664.38;;;32.33;47.62
33153;BME280;19509;43.862;26.176;2023-07-13T07:05:16;100662.03;;;32.47;47.68
33153;BME280;19509;43.862;26.176;2023-07-13T07:07:42;100663.09;;;32.59;46.60
33153;BME280;19509;43.862;26.176;2023-07-13T07:10:08;100658.81;;;32.61;46.38
33153;BME280;19509;43.862;26.176;2023-07-13T07:12:33;100657.34;;;32.67;46.75
33153;BME280;19509;43.862;26.176;2023-07-13T07:14:59;100654.84;;;32.78;45.34
33153;BME280;19509;43.862;26.176;2023-07-13T07:17:24;100645.22;;;32.91;45.78
33153;BME280;19509;43.862;26.176;2023-07-13T07:19:51;100647.22;;;32.75;45.30
33153;BME280;19509;43.862;26.176;2023-07-13T07:22:19;100648.03;;;32.76;46.17
33153;BME280;19509;43.862;26.176;2023-07-13T07:24:45;100651.31;;;32.81;45.79
33153;BME280;19509;43.862;26.176;2023-07-13T07:27:10;100655.31;;;32.96;45.01
33153;BME280;19509;43.862;26.176;2023-07-13T07:29:35;100652.06;;;32.94;45.32
33153;BME280;19509;43.862;26.176;2023-07-13T07:32:01;100643.16;;;32.88;44.93
33153;BME280;19509;43.862;26.176;2023-07-13T07:34:26;100635.91;;;33.00;45.41
33153;BME280;19509;43.862;26.176;2023-07-13T07:36:54;100641.72;;;33.10;43.18
33153;BME280;19509;43.862;26.176;2023-07-13T07:39:20;100631.13;;;33.16;43.80
33153;BME280;19509;43.862;26.176;2023-07-13T07:41:45;100640.53;;;33.27;44.47
33153;BME280;19509;43.862;26.176;2023-07-13T07:44:11;100629.06;;;33.48;43.57
33153;BME280;19509;43.862;26.176;2023-07-13T07:46:36;100640.19;;;33.64;43.86
33153;BME280;19509;43.862;26.176;2023-07-13T07:49:02;100643.06;;;33.67;42.82
33153;BME280;19509;43.862;26.176;2023-07-13T07:51:27;100636.38;;;33.72;42.88
33153;BME280;19509;43.862;26.176;2023-07-13T07:53:53;100641.09;;;33.87;42.02
33153;BME280;19509;43.862;26.176;2023-07-13T07:56:19;100636.88;;;33.58;44.04
33153;BME280;19509;43.862;26.176;2023-07-13T07:58:44;100633.50;;;33.68;43.13
33153;BME280;19509;43.862;26.176;2023-07-13T08:01:10;100630.66;;;33.84;42.34
33153;BME280;19509;43.862;26.176;2023-07-13T08:03:35;100627.63;;;33.93;41.86
33153;BME280;19509;43.862;26.176;2023-07-13T08:06:01;100630.72;;;33.88;42.50
33153;BME280;19509;43.862;26.176;2023-07-13T08:08:26;100633.75;;;34.18;43.54
33153;BME280;19509;43.862;26.176;2023-07-13T08:10:53;100628.47;;;34.55;41.29
33153;BME280;19509;43.862;26.176;2023-07-13T08:13:19;100636.25;;;34.46;40.45
33153;BME280;19509;43.862;26.176;2023-07-13T08:15:44;100639.59;;;34.32;39.65
33153;BME280;19509;43.862;26.176;2023-07-13T08:18:11;100638.78;;;34.32;40.27
33153;BME280;19509;43.862;26.176;2023-07-13T08:20:38;100648.44;;;34.57;39.71
33153;BME280;19509;43.862;26.176;2023-07-13T08:23:03;100636.19;;;34.43;39.00
33153;BME280;19509;43.862;26.176;2023-07-13T08:25:29;100647.59;;;34.53;40.29
33153;BME280;19509;43.862;26.176;2023-07-13T08:27:54;100641.19;;;34.76;38.84
33153;BME280;19509;43.862;26.176;2023-07-13T08:30:20;100635.84;;;34.90;38.82
33153;BME280;19509;43.862;26.176;2023-07-13T08:32:45;100642.72;;;34.96;38.00
33153;BME280;19509;43.862;26.176;2023-07-13T08:35:11;100638.38;;;34.99;38.42
33153;BME280;19509;43.862;26.176;2023-07-13T08:37:37;100635.28;;;35.04;38.23
33153;BME280;19509;43.862;26.176;2023-07-13T08:40:02;100637.66;;;35.28;37.94
33153;BME280;19509;43.862;26.176;2023-07-13T08:43:15;100638.72;;;35.47;37.60
33153;BME280;19509;43.862;26.176;2023-07-13T08:48:35;100638.31;;;35.48;36.38
33153;BME280;19509;43.862;26.176;2023-07-13T08:51:26;100631.03;;;35.67;36.46
33153;BME280;19509;43.862;26.176;2023-07-13T08:53:59;100626.34;;;35.78;36.48
33153;BME280;19509;43.862;26.176;2023-07-13T08:56:28;100628.34;;;35.77;35.54
33153;BME280;19509;43.862;26.176;2023-07-13T08:58:57;100622.31;;;35.75;35.10
33153;BME280;19509;43.862;26.176;2023-07-13T09:01:33;100613.00;;;35.64;35.80
33153;BME280;19509;43.862;26.176;2023-07-13T09:06:59;100603.50;;;36.06;36.16
33153;BME280;19509;43.862;26.176;2023-07-13T09:12:19;100609.75;;;35.96;35.37
33153;BME280;19509;43.862;26.176;2023-07-13T09:14:54;100605.53;;;36.09;34.97
33153;BME280;19509;43.862;26.176;2023-07-13T09:17:26;100596.84;;;36.18;34.48
33153;BME280;19509;43.862;26.176;2023-07-13T09:20:03;100595.06;;;36.03;33.74
33153;BME280;19509;43.862;26.176;2023-07-13T09:22:33;100592.25;;;36.03;32.74
33153;BME280;19509;43.862;26.176;2023-07-13T09:25:12;100585.06;;;36.02;33.37
33153;BME280;19509;43.862;26.176;2023-07-13T09:27:47;100597.72;;;36.26;32.90
33153;BME280;19509;43.862;26.176;2023-07-13T09:32:42;100594.97;;;36.33;31.91
33153;BME280;19509;43.862;26.176;2023-07-13T09:35:17;100595.06;;;36.43;31.48
33153;BME280;19509;43.862;26.176;2023-07-13T09:37:45;100597.19;;;36.54;32.16
33153;BME280;19509;43.862;26.176;2023-07-13T09:40:22;100607.72;;;36.67;32.11
33153;BME280;19509;43.862;26.176;2023-07-13T09:42:53;100604.13;;;36.70;32.16
33153;BME280;19509;43.862;26.176;2023-07-13T09:45:28;100605.41;;;36.80;31.77
33153;BME280;19509;43.862;26.176;2023-07-13T09:48:06;100596.16;;;36.73;33.31
33153;BME280;19509;43.862;26.176;2023-07-13T09:50:33;100599.34;;;36.71;31.31
33153;BME280;19509;43.862;26.176;2023-07-13T09:53:01;100609.66;;;36.60;32.20
33153;BME280;19509;43.862;26.176;2023-07-13T09:55:30;100611.72;;;36.66;32.32
33153;BME280;19509;43.862;26.176;2023-07-13T09:57:57;100611.75;;;36.70;32.36
33153;BME280;19509;43.862;26.176;2023-07-13T10:00:27;100613.84;;;36.80;33.20
33153;BME280;19509;43.862;26.176;2023-07-13T10:03:23;100602.19;;;36.78;32.12
33153;BME280;19509;43.862;26.176;2023-07-13T10:05:50;100603.09;;;36.89;33.42
33153;BME280;19509;43.862;26.176;2023-07-13T10:08:19;100604.84;;;37.08;32.35
33153;BME280;19509;43.862;26.176;2023-07-13T10:10:46;100594.03;;;37.10;32.74
33153;BME280;19509;43.862;26.176;2023-07-13T10:13:38;100604.16;;;37.29;32.29
33153;BME280;19509;43.862;26.176;2023-07-13T10:16:06;100603.88;;;37.45;31.87
33153;BME280;19509;43.862;26.176;2023-07-13T10:18:57;100604.94;;;37.23;31.63
33153;BME280;19509;43.862;26.176;2023-07-13T10:21:28;100585.75;;;37.32;31.07
33153;BME280;19509;43.862;26.176;2023-07-13T10:23:56;100590.09;;;37.22;30.92
33153;BME280;19509;43.862;26.176;2023-07-13T10:26:32;100598.41;;;37.04;31.48
33153;BME280;19509;43.862;26.176;2023-07-13T10:29:04;100609.88;;;36.88;29.72
33153;BME280;19509;43.862;26.176;2023-07-13T10:31:34;100600.69;;;36.91;30.97
33153;BME280;19509;43.862;26.176;2023-07-13T10:34:02;100592.09;;;37.22;30.44
33153;BME280;19509;43.862;26.176;2023-07-13T10:36:32;100604.59;;;37.31;30.64
33153;BME280;19509;43.862;26.176;2023-07-13T10:39:02;100587.28;;;37.22;30.17
33153;BME280;19509;43.862;26.176;2023-07-13T10:41:31;100594.09;;;37.21;29.37
33153;BME280;19509;43.862;26.176;2023-07-13T10:43:59;100596.59;;;37.37;30.44
33153;BME280;19509;43.862;26.176;2023-07-13T10:46:27;100597.09;;;37.53;29.88
33153;BME280;19509;43.862;26.176;2023-07-13T10:48:59;100598.38;;;37.70;30.39
33153;BME280;19509;43.862;26.176;2023-07-13T10:51:26;100594.00;;;37.87;29.86
33153;BME280;19509;43.862;26.176;2023-07-13T10:54:19;100587.25;;;37.92;29.84
33153;BME280;19509;43.862;26.176;2023-07-13T10:56:50;100569.50;;;37.80;30.05
33153;BME280;19509;43.862;26.176;2023-07-13T10:59:34;100565.91;;;37.83;30.35
33153;BME280;19509;43.862;26.176;2023-07-13T11:02:25;100552.38;;;38.25;30.57
33153;BME280;19509;43.862;26.176;2023-07-13T11:04:52;100545.13;;;38.17;31.60
33153;BME280;19509;43.862;26.176;2023-07-13T11:07:25;100538.31;;;38.18;33.12
33153;BME280;19509;43.862;26.176;2023-07-13T11:09:55;100547.19;;;38.45;32.26
33153;BME280;19509;43.862;26.176;2023-07-13T11:25:31;100529.88;;;39.00;29.92
33153;BME280;19509;43.862;26.176;2023-07-13T11:30:40;100526.28;;;38.89;30.24
33153;BME280;19509;43.862;26.176;2023-07-13T11:35:59;100526.69;;;38.73;30.42
33153;BME280;19509;43.862;26.176;2023-07-13T11:41:00;100512.19;;;38.89;30.99
33153;BME280;19509;43.862;26.176;2023-07-13T11:43:28;100498.09;;;39.07;29.81
33153;BME280;19509;43.862;26.176;2023-07-13T11:45:54;100493.22;;;39.18;28.20
33153;BME280;19509;43.862;26.176;2023-07-13T11:48:26;100496.81;;;39.29;29.23
33153;BME280;19509;43.862;26.176;2023-07-13T11:50:57;100494.13;;;38.93;29.04
33153;BME280;19509;43.862;26.176;2023-07-13T11:53:26;100487.72;;;38.68;29.38
33153;BME280;19509;43.862;26.176;2023-07-13T11:55:52;100486.50;;;38.87;29.01
33153;BME280;19509;43.862;26.176;2023-07-13T11:58:22;100486.16;;;38.49;29.63
33153;BME280;19509;43.862;26.176;2023-07-13T12:00:49;100478.41;;;38.99;29.38
33153;BME280;19509;43.862;26.176;2023-07-13T12:03:21;100471.44;;;39.36;29.14
33153;BME280;19509;43.862;26.176;2023-07-13T12:06:28;100477.00;;;39.54;27.68
33153;BME280;19509;43.862;26.176;2023-07-13T12:09:02;100475.44;;;39.42;28.37
33153;BME280;19509;43.862;26.176;2023-07-13T12:11:29;100465.69;;;39.61;28.28
33153;BME280;19509;43.862;26.176;2023-07-13T12:13:55;100463.28;;;39.56;27.70
33153;BME280;19509;43.862;26.176;2023-07-13T12:16:29;100463.22;;;39.70;27.33
33153;BME280;19509;43.862;26.176;2023-07-13T12:18:56;100469.19;;;39.80;27.53
33153;BME280;19509;43.862;26.176;2023-07-13T12:21:37;100469.31;;;39.58;28.09
33153;BME280;19509;43.862;26.176;2023-07-13T12:24:03;100471.78;;;39.49;28.00
33153;BME280;19509;43.862;26.176;2023-07-13T12:26:30;100462.13;;;39.50;27.87
33153;BME280;19509;43.862;26.176;2023-07-13T12:28:56;100460.75;;;39.80;27.25
33153;BME280;19509;43.862;26.176;2023-07-13T12:31:36;100457.78;;;39.97;26.70
33153;BME280;19509;43.862;26.176;2023-07-13T12:34:08;100455.13;;;39.76;26.86
33153;BME280;19509;43.862;26.176;2023-07-13T12:36:38;100452.13;;;39.38;27.14
33153;BME280;19509;43.862;26.176;2023-07-13T12:39:13;100452.41;;;39.62;27.01
33153;BME280;19509;43.862;26.176;2023-07-13T12:41:40;100444.81;;;39.52;27.73
33153;BME280;19509;43.862;26.176;2023-07-13T12:44:11;100445.25;;;39.46;26.84
33153;BME280;19509;43.862;26.176;2023-07-13T12:46:37;100449.69;;;39.44;27.41
33153;BME280;19509;43.862;26.176;2023-07-13T12:49:05;100446.06;;;39.43;26.12
33153;BME280;19509;43.862;26.176;2023-07-13T12:51:32;100446.09;;;39.40;27.02
33153;BME280;19509;43.862;26.176;2023-07-13T12:54:17;100445.41;;;39.84;27.38
33153;BME280;19509;43.862;26.176;2023-07-13T12:56:44;100457.28;;;40.10;26.42
33153;BME280;19509;43.862;26.176;2023-07-13T12:59:17;100449.22;;;40.15;27.09
33153;BME280;19509;43.862;26.176;2023-07-13T13:01:43;100433.00;;;40.27;26.25
33153;BME280;19509;43.862;26.176;2023-07-13T13:04:09;100440.28;;;40.24;26.53
33153;BME280;19509;43.862;26.176;2023-07-13T13:06:36;100436.69;;;40.20;25.86
33153;BME280;19509;43.862;26.176;2023-07-13T13:09:03;100433.59;;;40.04;26.44
33153;BME280;19509;43.862;26.176;2023-07-13T13:11:31;100432.31;;;40.15;25.66
33153;BME280;19509;43.862;26.176;2023-07-13T13:13:57;100425.84;;;39.59;26.74
33153;BME280;19509;43.862;26.176;2023-07-13T13:16:29;100429.06;;;39.61;26.01
33153;BME280;19509;43.862;26.176;2023-07-13T13:18:58;100432.16;;;39.08;26.46